Time;durP1;ratioP1;P1;durP2;ratioP2;P2;SDS_P1;SDS_P2;PMS_P1;PMS_P2;Temp;Humidity;BMP_temperature;BMP_pressure;BME280_temperature;BME280_humidity;BME280_pressure;Samples;Min_cycle;Max_cycle;Signal;HPM_P1;HPM_P2
2022/06/12 00:00:41;;;;;;;13.82;4.07;;;13.90;99.90;;;;;;6355993;27;20043;-69
2022/06/12 00:03:43;;;;;;;14.32;4.03;;;13.80;99.90;;;;;;6374679;27;20471;-69
2022/06/12 00:06:48;;;;;;;14.40;4.07;;;13.80;99.90;;;;;;6373975;27;20043;-69
2022/06/12 00:09:50;;;;;;;16.13;4.78;;;13.80;99.90;;;;;;6356200;27;20074;-68
2022/06/12 00:12:52;;;;;;;17.48;5.07;;;13.80;99.90;;;;;;6373986;27;20518;-69
2022/06/12 00:15:54;;;;;;;15.25;4.30;;;13.80;99.90;;;;;;6356099;27;20126;-69
2022/06/12 00:18:57;;;;;;;14.35;3.92;;;13.70;99.90;;;;;;6373962;27;20055;-68
2022/06/12 00:22:00;;;;;;;16.63;4.40;;;13.70;99.90;;;;;;6374410;27;20135;-69
2022/06/12 00:25:03;;;;;;;14.85;4.60;;;13.70;99.90;;;;;;6374167;27;20058;-69
2022/06/12 00:28:06;;;;;;;18.00;4.65;;;13.70;99.90;;;;;;6374213;27;20039;-69
2022/06/12 00:31:08;;;;;;;15.45;4.43;;;13.60;99.90;;;;;;6373794;27;20130;-69
2022/06/12 00:34:11;;;;;;;13.48;3.63;;;13.60;99.90;;;;;;6354949;27;20063;-68
2022/06/12 00:37:17;;;;;;;19.55;5.07;;;13.60;99.90;;;;;;6373693;27;20047;-69
2022/06/12 00:40:20;;;;;;;24.52;8.00;;;13.60;99.90;;;;;;6373351;27;20078;-69
2022/06/12 00:43:27;;;;;;;33.78;10.88;;;13.60;99.90;;;;;;6373505;27;20532;-69
2022/06/12 00:46:43;;;;;;;20.50;8.02;;;13.60;99.90;;;;;;6373305;27;20048;-68
2022/06/12 00:49:49;;;;;;;23.40;6.82;;;13.60;99.90;;;;;;6354991;27;20126;-69
2022/06/12 00:52:54;;;;;;;22.08;6.35;;;13.50;99.90;;;;;;6355216;27;20047;-69
2022/06/12 00:56:02;;;;;;;34.58;9.38;;;13.50;99.90;;;;;;6373570;27;20050;-69
2022/06/12 00:59:08;;;;;;;72.90;23.42;;;13.50;99.90;;;;;;6354899;27;20100;-70
2022/06/12 01:02:13;;;;;;;57.53;17.38;;;13.50;99.90;;;;;;6373642;27;20046;-69
2022/06/12 01:08:41;;;;;;;36.50;9.50;;;13.60;99.90;;;;;;6354838;27;20047;-69
2022/06/12 01:11:45;;;;;;;53.55;12.95;;;13.60;99.90;;;;;;6372817;27;20057;-69
2022/06/12 01:14:52;;;;;;;98.53;27.35;;;13.60;99.90;;;;;;6372436;27;20050;-69
2022/06/12 01:17:56;;;;;;;150.35;45.78;;;13.60;99.90;;;;;;6354347;27;20483;-69
2022/06/12 01:21:10;;;;;;;224.57;72.80;;;13.60;99.90;;;;;;6373125;27;20132;-69
2022/06/12 01:24:39;;;;;;;116.93;37.33;;;13.70;99.90;;;;;;6354254;27;20491;-69
2022/06/12 01:28:02;;;;;;;18.23;5.18;;;13.70;99.90;;;;;;6343549;27;20055;-69
2022/06/12 01:31:19;;;;;;;19.58;4.63;;;13.60;99.90;;;;;;6372591;27;20172;-69
2022/06/12 01:34:33;;;;;;;14.90;3.88;;;13.50;99.90;;;;;;6372152;27;20059;-69
2022/06/12 01:37:46;;;;;;;14.70;4.32;;;13.40;99.90;;;;;;6372536;27;20047;-69
2022/06/12 01:40:55;;;;;;;17.33;4.53;;;13.30;99.90;;;;;;6331661;28;20055;-68
2022/06/12 01:44:10;;;;;;;17.00;5.95;;;13.30;99.90;;;;;;6328911;28;20480;-69
2022/06/12 01:47:24;;;;;;;15.25;4.85;;;13.20;99.90;;;;;;6328706;28;20525;-68
2022/06/12 01:50:35;;;;;;;12.73;4.65;;;13.10;99.90;;;;;;6346544;28;20136;-69
2022/06/12 01:53:49;;;;;;;15.57;4.68;;;13.00;99.90;;;;;;6328764;28;20415;-68
2022/06/12 01:56:56;;;;;;;17.27;4.93;;;13.00;99.90;;;;;;6346623;28;20047;-69
2022/06/12 02:00:03;;;;;;;15.23;4.68;;;13.00;99.90;;;;;;6346919;28;20047;-68
2022/06/12 02:03:12;;;;;;;13.52;4.85;;;12.90;99.90;;;;;;6328719;28;20356;-69
2022/06/12 02:06:19;;;;;;;15.00;5.13;;;12.80;99.90;;;;;;6328036;28;20077;-69
2022/06/12 02:09:27;;;;;;;18.95;5.18;;;12.80;99.90;;;;;;6333464;28;20050;-69
2022/06/12 02:15:56;;;;;;;13.65;4.72;;;12.70;99.90;;;;;;6353707;28;20043;-69
2022/06/12 02:19:04;;;;;;;15.73;5.10;;;12.60;99.90;;;;;;6372282;28;20053;-69
2022/06/12 02:22:11;;;;;;;13.93;5.18;;;12.60;99.90;;;;;;6371614;28;20458;-69
2022/06/12 02:25:19;;;;;;;12.55;4.90;;;12.50;99.90;;;;;;6371621;28;20055;-69
2022/06/12 02:28:25;;;;;;;15.98;5.18;;;12.40;99.90;;;;;;6376103;27;20087;-69
2022/06/12 02:31:32;;;;;;;15.88;4.85;;;12.40;99.90;;;;;;6376714;27;20054;-69
2022/06/12 02:34:39;;;;;;;16.20;5.80;;;12.30;99.90;;;;;;6357837;27;20043;-69
2022/06/12 02:37:45;;;;;;;15.48;5.90;;;12.30;99.90;;;;;;6357981;27;20047;-69
2022/06/12 02:40:51;;;;;;;14.20;5.07;;;12.30;99.90;;;;;;6376792;27;20039;-69
2022/06/12 02:43:57;;;;;;;21.27;5.07;;;12.30;99.90;;;;;;6357834;27;20062;-69
2022/06/12 02:47:05;;;;;;;17.73;5.30;;;12.30;99.90;;;;;;6376029;27;20047;-68
2022/06/12 02:50:12;;;;;;;13.38;4.28;;;12.30;99.90;;;;;;6357789;27;20047;-69
2022/06/12 02:53:21;;;;;;;15.10;5.32;;;12.30;99.90;;;;;;6357758;27;20046;-68
2022/06/12 02:56:32;;;;;;;17.40;5.63;;;12.20;99.90;;;;;;6376244;27;20047;-69
2022/06/12 02:59:47;;;;;;;15.48;5.05;;;12.20;99.90;;;;;;6357830;27;20058;-69
2022/06/12 03:02:54;;;;;;;16.55;5.10;;;12.30;99.90;;;;;;6357656;27;20066;-69
2022/06/12 03:06:00;;;;;;;12.90;5.25;;;12.30;99.90;;;;;;6375766;27;20039;-69
2022/06/12 03:09:03;;;;;;;15.43;5.10;;;12.30;99.90;;;;;;6357470;27;20043;-69
2022/06/12 03:12:07;;;;;;;19.15;5.40;;;12.30;99.90;;;;;;6357506;27;20434;-68
2022/06/12 03:15:29;;;;;;;13.73;5.70;;;12.30;99.90;;;;;;6357595;27;20184;-69
2022/06/12 03:18:34;;;;;;;15.68;5.60;;;12.30;99.90;;;;;;6375483;27;20043;-68
2022/06/12 03:21:42;;;;;;;18.67;6.20;;;12.30;99.90;;;;;;6357456;27;20614;-69
2022/06/12 03:25:06;;;;;;;17.00;5.55;;;12.30;99.90;;;;;;6375733;27;20050;-69
2022/06/12 03:28:15;;;;;;;12.95;4.22;;;12.30;99.90;;;;;;6375465;27;20507;-68
2022/06/12 03:31:21;;;;;;;15.50;6.00;;;12.40;99.90;;;;;;6375113;27;20118;-68
2022/06/12 03:34:33;;;;;;;15.43;5.40;;;12.50;99.90;;;;;;6348086;28;20063;-68
2022/06/12 03:37:44;;;;;;;17.75;6.88;;;12.60;99.90;;;;;;6325656;28;20052;-68
2022/06/12 03:40:54;;;;;;;17.02;6.40;;;12.70;99.90;;;;;;6298009;28;20048;-68
2022/06/12 03:44:01;;;;;;;27.00;9.27;;;12.60;99.90;;;;;;6298871;28;20420;-68
2022/06/12 03:47:11;;;;;;;20.83;6.68;;;12.60;99.90;;;;;;6299103;28;20044;-68
2022/06/12 03:50:19;;;;;;;15.93;5.65;;;12.70;99.90;;;;;;6298865;28;20056;-68
2022/06/12 03:53:26;;;;;;;11.32;4.40;;;12.60;99.90;;;;;;6297821;28;20490;-68
2022/06/12 03:59:57;;;;;;;14.07;4.25;;;12.70;99.90;;;;;;6297519;28;20052;-68
2022/06/12 04:03:03;;;;;;;15.57;6.10;;;12.70;99.90;;;;;;6297617;28;20144;-68
2022/06/12 04:06:08;;;;;;;19.77;7.53;;;12.70;99.90;;;;;;6300532;28;20509;-68
2022/06/12 04:09:18;;;;;;;13.40;5.35;;;12.80;99.90;;;;;;6347807;28;20407;-69
2022/06/12 04:12:24;;;;;;;14.00;6.28;;;12.70;99.90;;;;;;6348795;28;20059;-68
2022/06/12 04:15:30;;;;;;;15.00;4.82;;;12.80;99.90;;;;;;6348099;28;20043;-68
2022/06/12 04:18:33;;;;;;;13.73;4.47;;;12.80;99.90;;;;;;6348503;28;20047;-69
2022/06/12 04:21:41;;;;;;;11.00;3.47;;;12.80;99.90;;;;;;6347433;28;20051;-68
2022/06/12 04:24:49;;;;;;;11.18;3.90;;;12.80;99.90;;;;;;6347380;28;20044;-69
2022/06/12 04:27:51;;;;;;;11.85;3.38;;;12.90;99.90;;;;;;6347808;28;20055;-68
2022/06/12 04:30:54;;;;;;;9.57;3.35;;;12.90;99.90;;;;;;6347104;28;20508;-68
2022/06/12 04:34:16;;;;;;;9.05;3.50;;;13.00;99.90;;;;;;6366619;27;20047;-69
2022/06/12 04:37:21;;;;;;;9.35;3.97;;;13.10;99.90;;;;;;6354615;27;20086;-68
2022/06/12 04:40:28;;;;;;;11.05;2.97;;;13.20;99.90;;;;;;6355421;27;20047;-68
2022/06/12 04:43:30;;;;;;;11.98;3.85;;;13.30;99.90;;;;;;6373680;27;20049;-68
2022/06/12 04:46:34;;;;;;;11.45;3.47;;;13.40;99.90;;;;;;6355097;27;20629;-68
2022/06/12 04:49:36;;;;;;;;;;;13.50;99.90;;;;;;6373300;27;20044;-68
2022/06/12 04:52:38;;;;;;;12.82;3.55;;;13.60;99.90;;;;;;6373096;27;19925;-68
2022/06/12 04:55:42;;;;;;;9.70;2.92;;;13.70;99.90;;;;;;6373443;27;20046;-68
2022/06/12 04:58:44;;;;;;;10.80;3.58;;;13.80;99.90;;;;;;6355396;27;20484;-68
2022/06/12 05:01:48;;;;;;;12.05;4.05;;;13.80;99.90;;;;;;6354950;27;20105;-68
2022/06/12 05:04:49;;;;;;;;;;;13.90;99.90;;;;;;6354906;27;20047;-68
2022/06/12 05:07:52;;;;;;;10.32;3.20;;;14.10;99.90;;;;;;6354279;27;19923;-69
2022/06/12 05:10:55;;;;;;;12.02;3.53;;;14.30;99.90;;;;;;6372891;27;20047;-68
2022/06/12 05:13:57;;;;;;;;;;;14.60;99.90;;;;;;6373433;27;20069;-68
2022/06/12 05:17:02;;;;;;;11.07;2.97;;;15.10;99.90;;;;;;6372769;27;20302;-69
2022/06/12 05:20:05;;;;;;;8.15;3.10;;;15.50;99.90;;;;;;6372611;27;20564;-68
2022/06/12 05:23:08;;;;;;;13.10;3.60;;;15.50;99.90;;;;;;6354534;27;20501;-68
2022/06/12 05:26:16;;;;;;;17.13;3.45;;;15.30;99.90;;;;;;6372905;27;20051;-69
2022/06/12 05:29:21;;;;;;;13.45;3.50;;;15.20;99.90;;;;;;6372339;27;20415;-68
2022/06/12 05:32:23;;;;;;;9.80;3.45;;;15.20;99.90;;;;;;6353844;27;20055;-68
2022/06/12 05:35:26;;;;;;;14.57;3.28;;;15.10;99.90;;;;;;6367670;27;20156;-69
2022/06/12 05:38:27;;;;;;;13.15;2.90;;;15.00;99.90;;;;;;6328550;28;20059;-68
2022/06/12 05:41:31;;;;;;;13.00;3.15;;;15.00;99.90;;;;;;6347216;28;20050;-68
2022/06/12 05:44:33;;;;;;;9.27;3.30;;;15.00;99.90;;;;;;6328841;28;20503;-68
2022/06/12 05:47:35;;;;;;;11.20;3.13;;;15.10;99.90;;;;;;6347059;28;20052;-68
2022/06/12 05:50:46;;;;;;;10.70;3.95;;;15.10;99.90;;;;;;6328344;28;20058;-68
2022/06/12 05:53:48;;;;;;;9.77;2.78;;;15.10;99.90;;;;;;6346695;28;20044;-68
2022/06/12 05:56:52;;;;;;;11.95;3.13;;;15.20;99.90;;;;;;6346873;28;20051;-69
2022/06/12 05:59:54;;;;;;;7.88;2.58;;;15.30;99.90;;;;;;6346995;28;20044;-68
2022/06/12 06:02:56;;;;;;;12.13;3.88;;;15.30;99.90;;;;;;6349976;28;20051;-68
2022/06/12 06:05:58;;;;;;;9.30;2.70;;;15.50;99.90;;;;;;6370504;27;20051;-68
2022/06/12 06:09:02;;;;;;;13.40;3.55;;;15.80;99.90;;;;;;6358758;27;20139;-68
2022/06/12 06:12:06;;;;;;;;;;;15.90;99.90;;;;;;6377918;27;20126;-68
2022/06/12 06:15:10;;;;;;;10.38;3.30;;;16.00;99.90;;;;;;6377458;27;19995;-68
2022/06/12 06:18:12;;;;;;;16.33;3.97;;;16.00;99.90;;;;;;6359091;27;20055;-68
2022/06/12 06:21:15;;;;;;;13.52;3.33;;;16.20;99.90;;;;;;6358402;27;20061;-68
2022/06/12 06:24:17;;;;;;;8.75;2.55;;;16.20;99.90;;;;;;6377177;27;20536;-68
2022/06/12 06:27:20;;;;;;;14.50;3.80;;;16.30;99.90;;;;;;6358405;27;20051;-68
2022/06/12 06:30:25;;;;;;;18.95;4.15;;;16.40;99.90;;;;;;6358267;27;20418;-68
2022/06/12 06:33:27;;;;;;;15.18;3.55;;;16.60;99.90;;;;;;6358307;27;20443;-68
2022/06/12 06:36:29;;;;;;;12.63;3.20;;;16.70;99.90;;;;;;6351235;27;20361;-68
2022/06/12 06:39:31;;;;;;;19.30;4.50;;;16.70;99.90;;;;;;6351281;28;20043;-68
2022/06/12 06:42:35;;;;;;;17.35;3.88;;;16.80;99.90;;;;;;6332829;28;20480;-68
2022/06/12 06:48:57;;;;;;;20.98;4.75;;;17.00;99.90;;;;;;6350530;28;20043;-68
2022/06/12 06:51:59;;;;;;;11.50;3.47;;;17.20;99.90;;;;;;6332343;28;20040;-68
2022/06/12 06:55:01;;;;;;;12.85;3.80;;;17.30;99.90;;;;;;6350787;28;20050;-68
2022/06/12 06:58:07;;;;;;;13.57;4.00;;;17.50;99.90;;;;;;6332688;28;20149;-68
2022/06/12 07:01:10;;;;;;;17.52;3.65;;;17.70;99.90;;;;;;6332300;28;20079;-68
2022/06/12 07:04:12;;;;;;;9.20;2.90;;;17.80;99.90;;;;;;6350482;28;20048;-68
2022/06/12 07:07:14;;;;;;;9.73;2.90;;;18.00;99.90;;;;;;6373061;27;20058;-68
2022/06/12 07:10:20;;;;;;;13.13;3.80;;;18.40;99.90;;;;;;6357209;27;20073;-68
2022/06/12 07:13:25;;;;;;;15.50;4.10;;;19.10;99.90;;;;;;6374780;27;20043;-68
2022/06/12 07:16:29;;;;;;;11.80;2.85;;;19.80;99.90;;;;;;6375813;27;20047;-68
2022/06/12 07:19:31;;;;;;;8.98;2.75;;;20.30;99.90;;;;;;6375942;27;20130;-68
2022/06/12 07:22:34;;;;;;;;;;;20.80;99.90;;;;;;6357466;27;20047;-68
2022/06/12 07:25:43;;;;;;;15.00;3.78;;;21.20;99.90;;;;;;6375273;27;20372;-68
2022/06/12 07:28:46;;;;;;;21.98;4.50;;;21.60;99.90;;;;;;6357068;27;20040;-69
2022/06/12 07:31:48;;;;;;;;;;;21.90;99.90;;;;;;6375821;27;20278;-68
2022/06/12 07:34:51;;;;;;;7.18;1.90;;;22.10;99.90;;;;;;6374890;27;20287;-68
2022/06/12 07:37:53;;;;;;;10.27;2.50;;;22.20;99.90;;;;;;6356673;27;20070;-68
2022/06/12 07:40:58;;;;;;;10.95;2.65;;;22.50;99.90;;;;;;6374973;27;20047;-69
2022/06/12 07:44:01;;;;;;;12.43;2.90;;;22.60;99.90;;;;;;6375067;27;20043;-69
2022/06/12 07:47:05;;;;;;;8.35;2.08;;;22.70;99.90;;;;;;6356505;27;20077;-68
2022/06/12 07:50:08;;;;;;;8.25;2.13;;;22.80;99.90;;;;;;6374842;27;20047;-69
2022/06/12 07:53:11;;;;;;;8.93;2.15;;;22.90;99.90;;;;;;6374747;27;20122;-69
2022/06/12 07:56:14;;;;;;;10.57;2.35;;;22.90;99.90;;;;;;6374976;27;20479;-69
2022/06/12 07:59:17;;;;;;;7.53;2.10;;;23.00;99.90;;;;;;6374534;27;20053;-69
2022/06/12 08:02:19;;;;;;;;;;;23.20;99.90;;;;;;6356976;27;20082;-69
2022/06/12 08:05:22;;;;;;;8.82;2.42;;;23.20;99.90;;;;;;6336853;28;19943;-69
2022/06/12 08:08:25;;;;;;;8.73;2.10;;;23.30;99.90;;;;;;6348768;28;20122;-69
2022/06/12 08:11:27;;;;;;;11.00;2.88;;;23.40;99.90;;;;;;6330538;28;20466;-69
2022/06/12 08:14:31;;;;;;;12.60;3.15;;;23.30;99.90;;;;;;6330790;28;20610;-69
2022/06/12 08:17:33;;;;;;;12.68;2.72;;;23.30;99.90;;;;;;6330649;28;20047;-69
2022/06/12 08:20:37;;;;;;;5.57;1.73;;;23.30;99.90;;;;;;6330474;28;20046;-69
2022/06/12 08:23:43;;;;;;;8.32;1.80;;;23.30;99.90;;;;;;6348606;28;20142;-69
2022/06/12 08:26:45;;;;;;;6.95;2.13;;;23.40;99.80;;;;;;6348067;28;20188;-69
2022/06/12 08:29:49;;;;;;;11.00;2.67;;;23.50;99.60;;;;;;6348448;28;20069;-69
2022/06/12 08:32:53;;;;;;;11.45;2.90;;;23.60;99.20;;;;;;6347819;28;20059;-69
2022/06/12 08:35:55;;;;;;;7.25;1.65;;;23.60;99.10;;;;;;6348146;28;20090;-69
2022/06/12 08:38:58;;;;;;;11.70;2.45;;;23.50;99.20;;;;;;6348007;28;20044;-69
2022/06/12 08:42:08;;;;;;;7.28;2.42;;;23.50;99.30;;;;;;6329950;28;20048;-69
2022/06/12 08:45:15;;;;;;;6.82;1.65;;;23.60;99.10;;;;;;6329605;28;20048;-69
2022/06/12 08:48:25;;;;;;;6.70;2.25;;;23.60;99.00;;;;;;6329470;28;20480;-69
2022/06/12 08:51:34;;;;;;;7.60;2.30;;;23.60;99.00;;;;;;6347815;28;20194;-69
2022/06/12 08:54:41;;;;;;;10.45;2.67;;;23.60;99.00;;;;;;6348050;28;20053;-69
2022/06/12 08:57:51;;;;;;;7.70;1.95;;;23.50;99.10;;;;;;6329643;28;20049;-69
2022/06/12 09:00:55;;;;;;;4.50;1.70;;;23.40;99.30;;;;;;6329263;28;20055;-69
2022/06/12 09:03:57;;;;;;;5.60;1.88;;;23.20;99.20;;;;;;6366395;27;20442;-69
2022/06/12 09:07:04;;;;;;;6.57;1.90;;;23.20;99.20;;;;;;6373139;27;20046;-69
2022/06/12 09:10:13;;;;;;;5.53;1.92;;;23.20;99.40;;;;;;6373138;27;20043;-69
2022/06/12 09:13:23;;;;;;;6.43;1.85;;;23.20;99.10;;;;;;6373030;27;20051;-69
2022/06/12 09:16:33;;;;;;;5.50;1.80;;;23.20;99.10;;;;;;6354297;27;20051;-69
2022/06/12 09:19:42;;;;;;;3.67;1.40;;;23.10;99.10;;;;;;6372982;27;20042;-69
2022/06/12 09:22:52;;;;;;;6.13;1.60;;;23.00;99.00;;;;;;6354645;27;20051;-69
2022/06/12 09:26:01;;;;;;;4.18;1.48;;;22.80;99.20;;;;;;6354696;27;20047;-68
2022/06/12 09:29:11;;;;;;;6.60;1.83;;;22.70;99.50;;;;;;6372416;27;20407;-68
2022/06/12 09:32:21;;;;;;;9.18;2.55;;;22.80;99.50;;;;;;6347868;27;20408;-68
2022/06/12 09:35:39;;;;;;;6.50;2.03;;;22.90;99.00;;;;;;6328609;28;20051;-69
2022/06/12 09:38:55;;;;;;;7.13;2.03;;;22.90;99.20;;;;;;6346905;28;20510;-69
2022/06/12 09:42:09;;;;;;;7.10;2.03;;;22.90;99.30;;;;;;6346650;28;20047;-69
2022/06/12 09:45:19;;;;;;;3.67;1.48;;;22.80;99.20;;;;;;6328763;28;20130;-69
2022/06/12 09:48:33;;;;;;;5.25;1.80;;;22.80;99.30;;;;;;6328401;28;20064;-69
2022/06/12 09:51:54;;;;;;;7.22;1.95;;;22.80;99.40;;;;;;6346755;28;20054;-69
2022/06/12 09:55:01;;;;;;;6.65;2.00;;;22.70;99.40;;;;;;6346835;28;20054;-69
2022/06/12 09:58:11;;;;;;;4.63;1.58;;;22.70;99.50;;;;;;6328526;28;20460;-69
2022/06/12 10:01:21;;;;;;;10.15;2.10;;;22.80;99.40;;;;;;6346507;28;20195;-69
2022/06/12 10:04:31;;;;;;;7.18;1.77;;;22.90;99.30;;;;;;6366624;28;20047;-69
2022/06/12 10:07:42;;;;;;;4.32;1.77;;;23.00;99.20;;;;;;6371601;28;20129;-69
2022/06/12 10:10:50;;;;;;;3.88;1.50;;;23.10;98.90;;;;;;6372321;28;20043;-69
2022/06/12 10:13:58;;;;;;;4.25;1.40;;;23.20;98.90;;;;;;6354007;28;20537;-69
2022/06/12 10:17:03;;;;;;;6.78;2.00;;;23.10;98.70;;;;;;6353380;28;20051;-69
2022/06/12 10:20:10;;;;;;;5.18;1.40;;;23.00;98.60;;;;;;6353735;28;20082;-69
2022/06/12 10:23:12;;;;;;;8.77;2.05;;;23.00;98.70;;;;;;6371746;28;20047;-69
2022/06/12 10:26:20;;;;;;;10.38;2.05;;;22.90;98.80;;;;;;6371917;28;20058;-69
2022/06/12 10:29:24;;;;;;;5.43;1.88;;;22.80;98.70;;;;;;6371991;28;20122;-69
2022/06/12 10:32:41;;;;;;;6.40;2.00;;;22.70;98.80;;;;;;6353008;28;20153;-69
2022/06/12 10:35:50;;;;;;;7.10;1.90;;;22.60;99.00;;;;;;6371665;28;20047;-69
2022/06/12 10:39:02;;;;;;;8.63;2.20;;;22.50;99.00;;;;;;6353096;28;20050;-69
2022/06/12 10:42:07;;;;;;;7.20;1.63;;;22.30;99.20;;;;;;6371401;28;20466;-69
2022/06/12 10:45:23;;;;;;;10.48;2.17;;;22.20;99.50;;;;;;6371557;28;20203;-69
2022/06/12 10:48:29;;;;;;;5.28;1.58;;;22.10;99.30;;;;;;6373775;27;20054;-69
2022/06/12 10:51:36;;;;;;;5.63;1.60;;;22.10;99.80;;;;;;6376503;27;20043;-69
2022/06/12 10:54:38;;;;;;;8.50;2.03;;;22.10;99.80;;;;;;6357677;27;20055;-69
2022/06/12 10:57:50;;;;;;;10.18;2.15;;;22.30;99.50;;;;;;6357483;27;20108;-69
2022/06/12 11:00:55;;;;;;;7.22;2.00;;;22.40;98.30;;;;;;6357349;27;20139;-69
2022/06/12 11:04:13;;;;;;;8.52;2.17;;;22.50;98.50;;;;;;6376179;27;20050;-69
2022/06/12 11:07:26;;;;;;;4.70;1.42;;;22.70;98.70;;;;;;6375490;27;20055;-69
2022/06/12 11:10:38;;;;;;;4.57;1.75;;;22.70;98.80;;;;;;6357303;27;20497;-69
2022/06/12 11:14:03;;;;;;;5.88;1.50;;;22.90;98.40;;;;;;6357601;27;20187;-69
2022/06/12 11:17:22;;;;;;;4.10;1.40;;;23.00;98.40;;;;;;6375816;27;20047;-69
2022/06/12 11:20:32;;;;;;;6.28;1.50;;;23.10;98.30;;;;;;6357485;27;20411;-69
2022/06/12 11:23:58;;;;;;;2.50;1.30;;;22.90;98.00;;;;;;6357335;27;20062;-69
2022/06/12 11:27:34;;;;;;;4.15;1.55;;;22.90;98.50;;;;;;6375589;27;20172;-69
2022/06/12 11:30:46;;;;;;;3.00;1.30;;;23.00;98.20;;;;;;6357200;27;20055;-69
2022/06/12 11:34:10;;;;;;;5.22;1.65;;;23.20;98.10;;;;;;6348012;28;20059;-69
2022/06/12 11:37:28;;;;;;;4.70;1.45;;;23.20;97.60;;;;;;6331584;28;20144;-69
2022/06/12 11:40:39;;;;;;;3.63;1.27;;;23.30;97.50;;;;;;6349903;28;20130;-69
2022/06/12 11:43:44;;;;;;;4.05;1.30;;;23.30;96.60;;;;;;6349548;28;20131;-69
2022/06/12 11:46:53;;;;;;;3.78;1.23;;;23.30;97.30;;;;;;6349761;28;20056;-69
2022/06/12 11:50:05;;;;;;;4.25;1.38;;;23.40;97.20;;;;;;6349547;28;20078;-69
2022/06/12 11:53:31;;;;;;;3.70;1.27;;;23.40;96.80;;;;;;6349172;28;20043;-69
2022/06/12 11:56:48;;;;;;;5.40;1.33;;;23.30;97.00;;;;;;6349406;28;20054;-69
2022/06/12 12:00:05;;;;;;;6.93;1.40;;;23.20;96.80;;;;;;6354032;27;20414;-69
2022/06/12 12:03:29;;;;;;;4.50;1.50;;;23.20;95.40;;;;;;6356180;27;20047;-69
2022/06/12 12:06:45;;;;;;;6.20;1.30;;;23.20;96.10;;;;;;6374642;27;20172;-69
2022/06/12 12:09:59;;;;;;;3.60;1.23;;;23.30;97.00;;;;;;6374224;27;20065;-69
2022/06/12 12:13:09;;;;;;;2.45;1.20;;;23.50;96.10;;;;;;6374230;27;20509;-69
2022/06/12 12:16:31;;;;;;;6.15;1.38;;;23.50;96.00;;;;;;6356089;27;20043;-69
2022/06/12 12:19:40;;;;;;;2.85;1.02;;;23.70;95.90;;;;;;6355654;27;20045;-69
2022/06/12 12:22:46;;;;;;;5.53;1.48;;;23.70;95.60;;;;;;6374449;27;20042;-69
2022/06/12 12:25:52;;;;;;;4.53;1.23;;;23.70;94.50;;;;;;6355940;27;20373;-69
2022/06/12 12:28:58;;;;;;;4.38;1.40;;;23.60;95.80;;;;;;6374311;27;20051;-69
2022/06/12 12:32:02;;;;;;;5.43;1.33;;;23.50;95.90;;;;;;6334575;28;20054;-69
2022/06/12 12:35:05;;;;;;;3.13;1.15;;;23.60;96.10;;;;;;6296366;28;20136;-69
2022/06/12 12:41:42;;;;;;;5.45;1.33;;;23.60;95.50;;;;;;6297542;28;20555;-69
2022/06/12 12:44:46;;;;;;;5.50;1.75;;;23.60;95.40;;;;;;6296218;28;20044;-69
2022/06/12 12:47:58;;;;;;;4.32;1.88;;;23.60;95.00;;;;;;6296433;28;20055;-69
2022/06/12 12:51:00;;;;;;;5.25;1.50;;;23.50;95.00;;;;;;6296457;28;20044;-68
2022/06/12 12:54:11;;;;;;;4.70;1.33;;;23.30;95.30;;;;;;6297471;28;20409;-69
2022/06/12 12:57:15;;;;;;;4.20;1.60;;;23.30;95.90;;;;;;6297483;28;20045;-69
2022/06/12 13:00:33;;;;;;;3.22;1.48;;;23.20;95.60;;;;;;6300576;28;20052;-69
2022/06/12 13:03:40;;;;;;;4.05;1.33;;;23.10;95.40;;;;;;6322857;28;20047;-69
2022/06/12 13:06:57;;;;;;;8.88;1.75;;;23.10;95.00;;;;;;6321204;28;20048;-69
2022/06/12 13:10:31;;;;;;;7.25;1.90;;;23.10;94.10;;;;;;6322122;28;20361;-69
2022/06/12 13:13:57;;;;;;;6.47;1.60;;;23.20;94.50;;;;;;6320618;28;20047;-69
2022/06/12 13:17:15;;;;;;;6.38;1.40;;;23.10;95.10;;;;;;6322360;28;20048;-69
2022/06/12 13:20:46;;;;;;;8.23;1.80;;;23.00;95.50;;;;;;6320634;28;20135;-69
2022/06/12 13:24:26;;;;;;;6.25;1.75;;;22.80;94.80;;;;;;6316082;28;20055;-69
2022/06/12 13:27:32;;;;;;;3.10;0.90;;;23.10;95.70;;;;;;6321821;28;20530;-69
2022/06/12 13:30:40;;;;;;;2.22;0.95;;;23.30;96.20;;;;;;6321925;28;20044;-69
2022/06/12 13:33:52;;;;;;;4.97;1.35;;;23.30;95.90;;;;;;6349329;27;20062;-69
2022/06/12 13:36:54;;;;;;;4.20;1.50;;;23.30;95.90;;;;;;6372173;27;20043;-69
2022/06/12 13:39:57;;;;;;;5.27;1.37;;;23.40;95.80;;;;;;6354031;27;20168;-69
2022/06/12 13:43:12;;;;;;;7.57;1.90;;;23.50;95.90;;;;;;6354470;27;20047;-69
2022/06/12 13:46:24;;;;;;;3.97;1.25;;;23.60;94.70;;;;;;6372615;27;20049;-69
2022/06/12 13:49:37;;;;;;;6.65;1.60;;;23.60;95.40;;;;;;6372054;27;20058;-69
2022/06/12 13:52:48;;;;;;;7.05;1.60;;;23.60;94.50;;;;;;6372696;28;20047;-69
2022/06/12 13:55:54;;;;;;;5.30;1.83;;;23.50;93.00;;;;;;6354084;28;20054;-69
2022/06/12 13:58:58;;;;;;;4.25;1.35;;;23.40;93.90;;;;;;6353894;28;20392;-69
2022/06/12 14:02:10;;;;;;;4.70;1.70;;;23.10;93.50;;;;;;6371843;28;20400;-69
2022/06/12 14:05:22;;;;;;;6.68;1.77;;;22.70;92.50;;;;;;6372376;28;20046;-69
2022/06/12 14:08:25;;;;;;;5.75;1.50;;;22.60;92.90;;;;;;6371873;28;20302;-69
2022/06/12 14:11:28;;;;;;;4.07;1.20;;;22.60;95.10;;;;;;6372448;28;20118;-68
2022/06/12 14:14:36;;;;;;;4.90;1.35;;;22.50;94.20;;;;;;6372353;28;20043;-69
2022/06/12 14:17:38;;;;;;;5.55;1.70;;;22.40;93.20;;;;;;6372275;28;20054;-69
2022/06/12 14:20:42;;;;;;;4.10;1.30;;;22.50;94.50;;;;;;6371746;28;20076;-69
2022/06/12 14:23:46;;;;;;;;;;;22.50;95.00;;;;;;6357585;27;20404;-68
2022/06/12 14:26:50;;;;;;;2.85;1.25;;;22.70;94.60;;;;;;6358604;27;20450;-69
2022/06/12 14:29:52;;;;;;;5.20;1.33;;;22.60;93.70;;;;;;6376963;27;20046;-69
2022/06/12 14:32:54;;;;;;;3.42;1.33;;;22.50;93.90;;;;;;6376347;27;20495;-69
2022/06/12 14:35:58;;;;;;;5.35;1.60;;;22.70;95.10;;;;;;6376494;27;20043;-69
2022/06/12 14:39:11;;;;;;;5.63;1.73;;;22.90;93.50;;;;;;6358268;27;20047;-69
2022/06/12 14:42:19;;;;;;;4.93;1.70;;;23.00;93.30;;;;;;6376536;27;20164;-69
2022/06/12 14:45:21;;;;;;;7.53;1.67;;;23.00;92.80;;;;;;6358296;27;20398;-69
2022/06/12 14:48:24;;;;;;;5.38;1.83;;;22.90;92.80;;;;;;6376281;27;20047;-69
2022/06/12 14:51:27;;;;;;;;;;;22.80;94.10;;;;;;6358629;27;20054;-69
2022/06/12 14:54:30;;;;;;;5.03;2.00;;;22.70;93.50;;;;;;6357801;27;20402;-69
2022/06/12 14:57:32;;;;;;;11.32;3.00;;;22.80;94.20;;;;;;6357968;27;20465;-69
2022/06/12 15:00:34;;;;;;;8.02;3.13;;;22.60;94.60;;;;;;6376846;27;20125;-69
2022/06/12 15:03:36;;;;;;;9.80;2.88;;;22.40;95.20;;;;;;6358035;27;20047;-69
2022/06/12 15:06:40;;;;;;;12.27;4.05;;;22.10;95.70;;;;;;6376180;27;20050;-69
2022/06/12 15:09:42;;;;;;;8.88;2.80;;;21.80;96.30;;;;;;6375906;27;20442;-69
2022/06/12 15:12:45;;;;;;;7.60;2.65;;;21.70;96.20;;;;;;6357694;27;20051;-69
2022/06/12 15:15:48;;;;;;;6.03;2.20;;;21.60;96.40;;;;;;6375901;27;20074;-69
2022/06/12 15:18:50;;;;;;;9.93;2.47;;;21.50;97.20;;;;;;6357222;27;20467;-69
2022/06/12 15:21:53;;;;;;;8.05;2.88;;;21.50;96.20;;;;;;6357897;27;20083;-69
2022/06/12 15:24:57;;;;;;;14.30;3.25;;;21.30;96.70;;;;;;6357731;27;20055;-69
2022/06/12 15:31:21;;;;;;;9.57;3.65;;;21.20;97.30;;;;;;6331790;28;20047;-69
2022/06/12 15:34:23;;;;;;;14.45;3.92;;;21.20;97.70;;;;;;6348645;28;20052;-69
2022/06/12 15:37:27;;;;;;;10.18;2.92;;;21.10;97.70;;;;;;6349653;28;20184;-69
2022/06/12 15:40:29;;;;;;;10.90;3.00;;;20.90;98.10;;;;;;6331314;28;20109;-69
2022/06/12 15:43:32;;;;;;;14.13;3.67;;;20.60;98.50;;;;;;6349651;28;20055;-71
2022/06/12 15:46:35;;;;;;;10.57;2.92;;;20.50;99.00;;;;;;6350048;28;20121;-69
2022/06/12 15:49:37;;;;;;;12.40;3.08;;;20.40;98.90;;;;;;6349547;28;20423;-69
2022/06/12 15:52:41;;;;;;;10.77;3.08;;;20.40;98.30;;;;;;6349313;28;20051;-68
2022/06/12 15:55:43;;;;;;;14.05;4.00;;;20.30;98.60;;;;;;6349911;28;20052;-69
2022/06/12 15:58:45;;;;;;;12.55;3.30;;;20.40;98.30;;;;;;6339123;27;20043;-69
2022/06/12 16:01:47;;;;;;;10.73;3.65;;;20.40;98.50;;;;;;6356433;27;20214;-69
2022/06/12 16:04:49;;;;;;;9.18;2.65;;;20.60;98.20;;;;;;6374481;27;20084;-69
2022/06/12 16:07:53;;;;;;;15.38;4.03;;;20.70;98.20;;;;;;6374333;27;20047;-69
2022/06/12 16:10:55;;;;;;;7.32;2.60;;;20.70;98.20;;;;;;6374816;27;20043;-69
2022/06/12 16:13:57;;;;;;;13.13;4.13;;;20.60;98.10;;;;;;6374280;27;20070;-69
2022/06/12 16:16:59;;;;;;;10.80;2.85;;;20.60;98.40;;;;;;6374210;27;20483;-69
2022/06/12 16:20:01;;;;;;;14.50;4.28;;;20.70;98.50;;;;;;6374279;27;20426;-69
2022/06/12 16:23:04;;;;;;;10.70;4.95;;;20.80;97.90;;;;;;6374284;27;20039;-69
2022/06/12 16:26:07;;;;;;;14.27;3.22;;;20.70;98.30;;;;;;6374209;27;20053;-69
2022/06/12 16:29:09;;;;;;;12.07;4.35;;;20.60;98.20;;;;;;6356050;27;20051;-69